sensor_id;sensor_type;location;lat;lon;timestamp;pressure;altitude;pressure_sealevel;temperature;humidity
48402;BME280;65988;52.422;16.746;2023-07-31T00:01:22;99591.88;;;34.02;38.28
48402;BME280;65988;52.422;16.746;2023-07-31T00:03:51;99701.81;;;34.02;39.10
48402;BME280;65988;52.422;16.746;2023-07-31T00:06:35;99662.47;;;34.48;38.21
48402;BME280;65988;52.422;16.746;2023-07-31T00:09:05;99642.28;;;33.80;38.88
48402;BME280;65988;52.422;16.746;2023-07-31T00:11:43;99633.63;;;33.04;39.98
48402;BME280;65988;52.422;16.746;2023-07-31T00:14:25;99705.78;;;33.86;39.05
48402;BME280;65988;52.422;16.746;2023-07-31T00:17:17;99656.31;;;33.22;39.59
48402;BME280;65988;52.422;16.746;2023-07-31T00:19:56;99550.19;;;32.40;40.25
48402;BME280;65988;52.422;16.746;2023-07-31T00:22:28;99656.88;;;32.15;41.26
48402;BME280;65988;52.422;16.746;2023-07-31T00:24:56;99752.78;;;33.55;39.56
48402;BME280;65988;52.422;16.746;2023-07-31T00:27:33;99673.03;;;33.78;38.94
48402;BME280;65988;52.422;16.746;2023-07-31T00:29:58;99339.47;;;31.89;40.27
48402;BME280;65988;52.422;16.746;2023-07-31T00:32:35;99743.91;;;34.08;38.95
48402;BME280;65988;52.422;16.746;2023-07-31T00:35:04;99696.94;;;33.46;39.28
48402;BME280;65988;52.422;16.746;2023-07-31T00:37:33;99648.91;;;33.44;39.44
48402;BME280;65988;52.422;16.746;2023-07-31T00:40:06;99660.41;;;33.65;38.97
48402;BME280;65988;52.422;16.746;2023-07-31T00:42:37;99800.19;;;34.22;38.58
48402;BME280;65988;52.422;16.746;2023-07-31T00:45:14;99618.81;;;33.62;38.50
48402;BME280;65988;52.422;16.746;2023-07-31T00:47:42;99372.19;;;32.71;38.73
48402;BME280;65988;52.422;16.746;2023-07-31T00:50:13;99660.19;;;33.73;38.58
48402;BME280;65988;52.422;16.746;2023-07-31T00:52:44;99606.03;;;33.17;39.21
48402;BME280;65988;52.422;16.746;2023-07-31T00:55:15;99586.06;;;32.93;39.39
48402;BME280;65988;52.422;16.746;2023-07-31T00:58:02;99652.00;;;31.97;41.16
48402;BME280;65988;52.422;16.746;2023-07-31T01:00:28;99381.22;;;31.90;40.14
48402;BME280;65988;52.422;16.746;2023-07-31T01:02:54;99332.06;;;31.98;39.40
48402;BME280;65988;52.422;16.746;2023-07-31T01:05:39;99575.47;;;33.79;38.23
48402;BME280;65988;52.422;16.746;2023-07-31T01:08:27;99528.63;;;33.09;39.03
48402;BME280;65988;52.422;16.746;2023-07-31T01:11:41;99599.47;;;33.33;38.87
48402;BME280;65988;52.422;16.746;2023-07-31T01:14:10;99590.34;;;32.67;39.67
48402;BME280;65988;52.422;16.746;2023-07-31T01:16:43;99495.25;;;32.45;39.43
48402;BME280;65988;52.422;16.746;2023-07-31T01:19:26;99629.31;;;32.97;39.44
48402;BME280;65988;52.422;16.746;2023-07-31T01:25:28;99531.69;;;32.59;39.74
48402;BME280;65988;52.422;16.746;2023-07-31T01:28:04;99668.19;;;32.72;39.92
48402;BME280;65988;52.422;16.746;2023-07-31T01:30:38;99608.50;;;32.79;39.86
48402;BME280;65988;52.422;16.746;2023-07-31T01:33:12;99529.66;;;31.51;40.68
48402;BME280;65988;52.422;16.746;2023-07-31T01:35:43;99277.56;;;29.92;41.97
48402;BME280;65988;52.422;16.746;2023-07-31T01:38:14;99365.72;;;31.03;41.09
48402;BME280;65988;52.422;16.746;2023-07-31T01:40:43;99630.81;;;32.31;40.45
48402;BME280;65988;52.422;16.746;2023-07-31T01:43:16;99529.03;;;32.86;39.17
48402;BME280;65988;52.422;16.746;2023-07-31T01:45:42;99329.41;;;32.45;38.73
48402;BME280;65988;52.422;16.746;2023-07-31T01:48:13;99536.81;;;33.21;38.88
48402;BME280;65988;52.422;16.746;2023-07-31T01:50:49;99610.78;;;33.62;38.49
48402;BME280;65988;52.422;16.746;2023-07-31T01:53:21;99489.69;;;32.39;39.37
48402;BME280;65988;52.422;16.746;2023-07-31T01:55:49;99362.69;;;31.20;40.57
48402;BME280;65988;52.422;16.746;2023-07-31T01:58:17;99291.88;;;30.76;40.97
48402;BME280;65988;52.422;16.746;2023-07-31T02:00:42;99217.34;;;31.36;39.92
48402;BME280;65988;52.422;16.746;2023-07-31T02:03:08;99071.28;;;29.79;41.52
48402;BME280;65988;52.422;16.746;2023-07-31T02:05:33;99264.94;;;31.12;40.73
48402;BME280;65988;52.422;16.746;2023-07-31T02:07:59;99238.63;;;30.26;41.65
48402;BME280;65988;52.422;16.746;2023-07-31T02:10:27;99273.38;;;30.11;42.14
48402;BME280;65988;52.422;16.746;2023-07-31T02:12:55;99230.19;;;30.50;41.66
48402;BME280;65988;52.422;16.746;2023-07-31T02:15:25;99217.41;;;30.39;41.53
48402;BME280;65988;52.422;16.746;2023-07-31T02:17:54;99120.28;;;29.50;42.41
48402;BME280;65988;52.422;16.746;2023-07-31T02:20:28;99506.50;;;31.30;41.28
48402;BME280;65988;52.422;16.746;2023-07-31T02:22:53;99326.50;;;30.41;41.87
48402;BME280;65988;52.422;16.746;2023-07-31T02:25:19;99239.72;;;30.03;42.00
48402;BME280;65988;52.422;16.746;2023-07-31T02:27:47;99153.66;;;28.06;44.63
48402;BME280;65988;52.422;16.746;2023-07-31T02:30:19;99722.34;;;31.26;42.13
48402;BME280;65988;52.422;16.746;2023-07-31T02:32:46;99458.81;;;29.98;42.60
48402;BME280;65988;52.422;16.746;2023-07-31T02:35:15;99253.34;;;29.65;42.60
48402;BME280;65988;52.422;16.746;2023-07-31T02:37:43;99671.94;;;31.16;42.22
48402;BME280;65988;52.422;16.746;2023-07-31T02:40:14;99630.63;;;31.97;40.65
48402;BME280;65988;52.422;16.746;2023-07-31T02:42:43;99561.69;;;31.16;41.38
48402;BME280;65988;52.422;16.746;2023-07-31T02:45:11;99620.84;;;31.19;41.95
48402;BME280;65988;52.422;16.746;2023-07-31T02:47:39;99257.28;;;30.26;41.76
48402;BME280;65988;52.422;16.746;2023-07-31T02:50:15;99179.78;;;29.92;41.50
48402;BME280;65988;52.422;16.746;2023-07-31T02:52:43;99172.56;;;30.14;41.57
48402;BME280;65988;52.422;16.746;2023-07-31T02:55:08;99136.78;;;29.67;41.55
48402;BME280;65988;52.422;16.746;2023-07-31T02:57:34;99211.31;;;29.39;43.04
48402;BME280;65988;52.422;16.746;2023-07-31T03:00:03;99555.41;;;30.80;41.91
48402;BME280;65988;52.422;16.746;2023-07-31T03:02:31;99228.28;;;29.38;42.82
48402;BME280;65988;52.422;16.746;2023-07-31T03:04:56;99236.28;;;29.38;42.89
48402;BME280;65988;52.422;16.746;2023-07-31T03:07:22;99263.94;;;28.70;44.15
48402;BME280;65988;52.422;16.746;2023-07-31T03:09:47;99192.47;;;30.18;41.39
48402;BME280;65988;52.422;16.746;2023-07-31T03:12:40;99533.19;;;31.30;41.21
48402;BME280;65988;52.422;16.746;2023-07-31T03:15:05;99350.03;;;29.87;42.16
48402;BME280;65988;52.422;16.746;2023-07-31T03:17:35;99596.91;;;31.33;41.62
48402;BME280;65988;52.422;16.746;2023-07-31T03:20:01;99292.63;;;29.63;42.62
48402;BME280;65988;52.422;16.746;2023-07-31T03:22:30;99585.38;;;32.02;40.48
48402;BME280;65988;52.422;16.746;2023-07-31T03:24:56;99171.34;;;30.59;40.61
48402;BME280;65988;52.422;16.746;2023-07-31T03:27:24;99570.06;;;32.18;39.88
48402;BME280;65988;52.422;16.746;2023-07-31T03:29:52;99547.69;;;31.84;40.59
48402;BME280;65988;52.422;16.746;2023-07-31T03:32:17;99137.44;;;29.76;42.15
48402;BME280;65988;52.422;16.746;2023-07-31T03:34:46;99248.78;;;29.00;43.32
48402;BME280;65988;52.422;16.746;2023-07-31T03:37:18;99589.19;;;31.45;40.89
48402;BME280;65988;52.422;16.746;2023-07-31T03:39:44;99300.94;;;30.18;42.47
48402;BME280;65988;52.422;16.746;2023-07-31T03:42:12;99531.38;;;31.30;41.66
48402;BME280;65988;52.422;16.746;2023-07-31T03:44:38;99277.09;;;29.88;42.59
48402;BME280;65988;52.422;16.746;2023-07-31T03:47:05;99604.53;;;32.06;40.79
48402;BME280;65988;52.422;16.746;2023-07-31T03:52:16;99567.34;;;31.63;41.53
48402;BME280;65988;52.422;16.746;2023-07-31T03:54:44;99580.41;;;31.86;40.97
48402;BME280;65988;52.422;16.746;2023-07-31T04:03:14;99269.41;;;30.57;41.42
48402;BME280;65988;52.422;16.746;2023-07-31T04:05:42;99232.84;;;30.15;41.76
48402;BME280;65988;52.422;16.746;2023-07-31T04:08:12;99557.84;;;29.87;44.00
48402;BME280;65988;52.422;16.746;2023-07-31T04:10:55;99557.56;;;30.70;42.80
48402;BME280;65988;52.422;16.746;2023-07-31T04:13:39;99399.38;;;29.16;44.73
48402;BME280;65988;52.422;16.746;2023-07-31T04:16:04;99349.25;;;29.72;43.54
48402;BME280;65988;52.422;16.746;2023-07-31T04:18:33;99477.91;;;29.35;44.87
48402;BME280;65988;52.422;16.746;2023-07-31T04:21:01;99413.72;;;28.47;45.72
48402;BME280;65988;52.422;16.746;2023-07-31T04:23:27;99332.09;;;29.23;43.74
48402;BME280;65988;52.422;16.746;2023-07-31T04:25:58;99596.44;;;31.51;41.99
48402;BME280;65988;52.422;16.746;2023-07-31T04:31:32;99620.53;;;31.08;42.97
48402;BME280;65988;52.422;16.746;2023-07-31T04:34:01;99658.97;;;30.40;44.03
48402;BME280;65988;52.422;16.746;2023-07-31T04:36:29;99587.03;;;30.62;43.15
48402;BME280;65988;52.422;16.746;2023-07-31T04:39:01;99307.69;;;30.20;42.24
48402;BME280;65988;52.422;16.746;2023-07-31T04:41:45;99547.94;;;31.89;41.33
48402;BME280;65988;52.422;16.746;2023-07-31T04:44:11;99200.06;;;30.21;41.94
48402;BME280;65988;52.422;16.746;2023-07-31T04:46:49;99629.50;;;32.82;40.53
48402;BME280;65988;52.422;16.746;2023-07-31T04:49:50;99520.53;;;31.03;42.16
48402;BME280;65988;52.422;16.746;2023-07-31T04:52:19;99729.47;;;31.40;43.14
48402;BME280;65988;52.422;16.746;2023-07-31T04:55:00;99565.94;;;30.88;42.68
48402;BME280;65988;52.422;16.746;2023-07-31T04:57:31;99745.31;;;32.20;41.71
48402;BME280;65988;52.422;16.746;2023-07-31T05:00:18;99576.13;;;31.92;41.39
48402;BME280;65988;52.422;16.746;2023-07-31T05:02:57;99646.53;;;32.67;40.59
48402;BME280;65988;52.422;16.746;2023-07-31T05:05:30;99610.00;;;31.56;42.26
48402;BME280;65988;52.422;16.746;2023-07-31T05:07:56;99218.59;;;30.36;42.37
48402;BME280;65988;52.422;16.746;2023-07-31T05:10:55;99442.44;;;31.78;40.86
48402;BME280;65988;52.422;16.746;2023-07-31T05:13:21;99340.69;;;31.11;41.90
48402;BME280;65988;52.422;16.746;2023-07-31T05:16:05;99580.16;;;31.17;42.86
48402;BME280;65988;52.422;16.746;2023-07-31T14:13:59;99598.34;;;37.77;37.15
48402;BME280;65988;52.422;16.746;2023-07-31T14:17:02;99369.41;;;39.05;34.65
48402;BME280;65988;52.422;16.746;2023-07-31T14:19:33;99271.44;;;38.26;35.43
48402;BME280;65988;52.422;16.746;2023-07-31T14:22:43;99525.31;;;41.18;33.18
48402;BME280;65988;52.422;16.746;2023-07-31T14:28:24;99388.81;;;39.24;33.38
48402;BME280;65988;52.422;16.746;2023-07-31T14:31:36;99443.22;;;40.05;33.15
48402;BME280;65988;52.422;16.746;2023-07-31T14:34:34;99431.47;;;38.61;35.02
48402;BME280;65988;52.422;16.746;2023-07-31T14:37:14;99306.91;;;37.33;35.46
48402;BME280;65988;52.422;16.746;2023-07-31T14:39:54;99473.03;;;38.60;35.28
48402;BME280;65988;52.422;16.746;2023-07-31T14:42:21;99342.44;;;36.54;36.18
48402;BME280;65988;52.422;16.746;2023-07-31T14:44:58;99441.97;;;37.37;35.93
48402;BME280;65988;52.422;16.746;2023-07-31T14:47:31;99288.59;;;36.54;35.98
48402;BME280;65988;52.422;16.746;2023-07-31T14:50:05;99423.25;;;37.18;36.05
48402;BME280;65988;52.422;16.746;2023-07-31T14:52:36;99262.38;;;35.54;37.01
48402;BME280;65988;52.422;16.746;2023-07-31T14:55:02;99133.50;;;34.33;37.50
48402;BME280;65988;52.422;16.746;2023-07-31T15:01:28;99392.13;;;38.48;34.47
48402;BME280;65988;52.422;16.746;2023-07-31T15:04:33;99314.91;;;36.28;36.03
48402;BME280;65988;52.422;16.746;2023-07-31T15:07:16;99306.16;;;35.24;37.09
48402;BME280;65988;52.422;16.746;2023-07-31T15:09:48;99455.44;;;35.39;38.08
48402;BME280;65988;52.422;16.746;2023-07-31T15:12:51;99254.72;;;35.09;37.54
48402;BME280;65988;52.422;16.746;2023-07-31T15:15:41;99452.34;;;36.14;37.00
48402;BME280;65988;52.422;16.746;2023-07-31T15:24:40;99005.69;;;35.16;35.24
48402;BME280;65988;52.422;16.746;2023-07-31T15:27:34;99279.44;;;34.99;36.52
48402;BME280;65988;52.422;16.746;2023-07-31T15:30:03;99174.47;;;35.78;34.92
48402;BME280;65988;52.422;16.746;2023-07-31T15:33:13;99018.88;;;36.52;33.23
48402;BME280;65988;52.422;16.746;2023-07-31T15:35:44;99063.25;;;37.29;32.63
48402;BME280;65988;52.422;16.746;2023-07-31T15:38:37;98921.44;;;35.46;33.91
48402;BME280;65988;52.422;16.746;2023-07-31T15:41:05;99288.53;;;38.15;32.85
48402;BME280;65988;52.422;16.746;2023-07-31T15:43:33;98987.09;;;36.99;32.88
48402;BME280;65988;52.422;16.746;2023-07-31T15:53:20;99117.19;;;36.71;33.53
48402;BME280;65988;52.422;16.746;2023-07-31T15:59:37;99308.59;;;38.02;32.97
48402;BME280;65988;52.422;16.746;2023-07-31T16:02:29;99224.69;;;38.65;32.49
48402;BME280;65988;52.422;16.746;2023-07-31T16:08:24;99213.38;;;36.47;34.33
48402;BME280;65988;52.422;16.746;2023-07-31T16:14:39;99211.94;;;37.14;33.83
48402;BME280;65988;52.422;16.746;2023-07-31T16:17:51;99151.72;;;38.15;32.37
48402;BME280;65988;52.422;16.746;2023-07-31T16:20:39;98995.41;;;35.77;34.01
48402;BME280;65988;52.422;16.746;2023-07-31T16:23:18;99236.81;;;36.11;34.88
48402;BME280;65988;52.422;16.746;2023-07-31T16:31:47;99259.34;;;36.98;34.49
48402;BME280;65988;52.422;16.746;2023-07-31T16:34:37;99084.38;;;36.57;33.59
48402;BME280;65988;52.422;16.746;2023-07-31T16:37:33;99203.16;;;38.48;32.31
48402;BME280;65988;52.422;16.746;2023-07-31T16:40:37;99193.94;;;37.31;33.41
48402;BME280;65988;52.422;16.746;2023-07-31T16:43:16;99160.34;;;36.88;33.63
48402;BME280;65988;52.422;16.746;2023-07-31T16:46:05;98943.22;;;35.21;34.62
48402;BME280;65988;52.422;16.746;2023-07-31T16:51:52;99187.28;;;37.73;32.89
48402;BME280;65988;52.422;16.746;2023-07-31T17:03:07;99160.53;;;37.83;32.51
48402;BME280;65988;52.422;16.746;2023-07-31T17:08:36;99115.22;;;36.38;33.63
48402;BME280;65988;52.422;16.746;2023-07-31T17:11:16;99255.31;;;36.72;34.24
48402;BME280;65988;52.422;16.746;2023-07-31T17:14:11;99160.63;;;37.55;32.98
48402;BME280;65988;52.422;16.746;2023-07-31T17:17:11;99065.78;;;35.03;35.59
48402;BME280;65988;52.422;16.746;2023-07-31T17:20:06;99197.72;;;37.02;33.52
48402;BME280;65988;52.422;16.746;2023-07-31T17:23:04;99154.72;;;34.16;36.64
48402;BME280;65988;52.422;16.746;2023-07-31T17:32:19;99198.38;;;37.09;33.91
48402;BME280;65988;52.422;16.746;2023-07-31T17:35:17;99235.94;;;37.15;33.76
48402;BME280;65988;52.422;16.746;2023-07-31T17:38:13;99018.94;;;35.82;34.29
48402;BME280;65988;52.422;16.746;2023-07-31T17:41:02;99017.56;;;35.56;34.43
48402;BME280;65988;52.422;16.746;2023-07-31T17:43:52;99220.47;;;37.40;33.15
48402;BME280;65988;52.422;16.746;2023-07-31T17:47:02;99209.75;;;37.11;33.26
48402;BME280;65988;52.422;16.746;2023-07-31T17:53:16;99157.66;;;36.47;33.96
48402;BME280;65988;52.422;16.746;2023-07-31T17:56:06;99123.78;;;35.46;34.96
48402;BME280;65988;52.422;16.746;2023-07-31T17:58:55;99102.31;;;36.11;34.01
48402;BME280;65988;52.422;16.746;2023-07-31T18:02:00;99047.50;;;36.41;33.47
48402;BME280;65988;52.422;16.746;2023-07-31T18:05:21;99056.34;;;36.12;33.82
48402;BME280;65988;52.422;16.746;2023-07-31T18:08:02;99082.75;;;35.63;34.56
48402;BME280;65988;52.422;16.746;2023-07-31T18:11:00;99089.41;;;35.96;34.24
48402;BME280;65988;52.422;16.746;2023-07-31T18:13:54;99128.53;;;36.04;34.52
48402;BME280;65988;52.422;16.746;2023-07-31T18:25:19;99185.69;;;36.35;34.36
48402;BME280;65988;52.422;16.746;2023-07-31T18:31:04;99123.59;;;36.82;34.11
48402;BME280;65988;52.422;16.746;2023-07-31T18:37:17;99079.72;;;36.53;34.04
48402;BME280;65988;52.422;16.746;2023-07-31T18:44:00;98990.38;;;35.93;34.09
48402;BME280;65988;52.422;16.746;2023-07-31T18:47:31;99163.25;;;36.87;34.00
48402;BME280;65988;52.422;16.746;2023-07-31T18:54:04;99039.16;;;35.85;34.44
48402;BME280;65988;52.422;16.746;2023-07-31T19:02:52;99104.59;;;35.78;34.95
48402;BME280;65988;52.422;16.746;2023-07-31T19:06:02;99100.25;;;36.01;34.75
48402;BME280;65988;52.422;16.746;2023-07-31T19:15:12;99192.75;;;36.53;34.87
48402;BME280;65988;52.422;16.746;2023-07-31T19:22:02;99119.41;;;36.74;34.13
48402;BME280;65988;52.422;16.746;2023-07-31T19:25:24;99171.53;;;36.97;34.09
48402;BME280;65988;52.422;16.746;2023-07-31T19:28:38;99150.09;;;36.73;34.49
48402;BME280;65988;52.422;16.746;2023-07-31T19:42:51;99040.38;;;36.35;34.54
48402;BME280;65988;52.422;16.746;2023-07-31T19:45:59;99149.47;;;36.83;34.57
48402;BME280;65988;52.422;16.746;2023-07-31T20:24:40;99009.69;;;35.78;35.04
48402;BME280;65988;52.422;16.746;2023-07-31T20:50:22;99102.47;;;36.45;35.03
48402;BME280;65988;52.422;16.746;2023-07-31T20:53:47;99064.31;;;35.55;36.06
48402;BME280;65988;52.422;16.746;2023-07-31T21:06:02;99046.00;;;34.74;36.87
48402;BME280;65988;52.422;16.746;2023-07-31T21:08:59;99141.00;;;34.42;37.93
48402;BME280;65988;52.422;16.746;2023-07-31T21:11:41;99204.84;;;34.52;38.11
48402;BME280;65988;52.422;16.746;2023-07-31T21:14:06;98756.16;;;32.88;38.45
48402;BME280;65988;52.422;16.746;2023-07-31T21:16:34;99034.13;;;33.09;39.04
48402;BME280;65988;52.422;16.746;2023-07-31T21:19:00;99005.53;;;32.78;39.57
48402;BME280;65988;52.422;16.746;2023-07-31T21:21:26;98847.03;;;33.38;38.16
48402;BME280;65988;52.422;16.746;2023-07-31T21:23:51;98725.69;;;32.15;39.27
48402;BME280;65988;52.422;16.746;2023-07-31T21:26:17;98828.44;;;32.69;39.57
48402;BME280;65988;52.422;16.746;2023-07-31T21:28:42;98851.84;;;34.33;37.38
48402;BME280;65988;52.422;16.746;2023-07-31T21:31:23;99099.69;;;35.28;36.79
48402;BME280;65988;52.422;16.746;2023-07-31T21:33:49;98637.72;;;32.06;39.07
48402;BME280;65988;52.422;16.746;2023-07-31T21:36:14;98786.53;;;33.61;37.48
48402;BME280;65988;52.422;16.746;2023-07-31T21:38:40;98801.06;;;32.23;39.94
48402;BME280;65988;52.422;16.746;2023-07-31T21:41:09;99133.91;;;33.49;39.15
48402;BME280;65988;52.422;16.746;2023-07-31T21:43:34;98717.81;;;32.57;38.80
48402;BME280;65988;52.422;16.746;2023-07-31T21:45:59;98766.44;;;32.91;38.38
48402;BME280;65988;52.422;16.746;2023-07-31T21:48:29;99089.88;;;34.79;37.44
48402;BME280;65988;52.422;16.746;2023-07-31T21:50:55;98843.19;;;32.28;39.78
48402;BME280;65988;52.422;16.746;2023-07-31T21:53:21;98738.66;;;31.61;40.24
48402;BME280;65988;52.422;16.746;2023-07-31T21:55:48;99146.44;;;34.17;38.45
48402;BME280;65988;52.422;16.746;2023-07-31T21:58:16;99048.53;;;33.34;39.03
48402;BME280;65988;52.422;16.746;2023-07-31T22:00:47;98935.63;;;32.17;39.91
48402;BME280;65988;52.422;16.746;2023-07-31T22:03:15;99158.97;;;34.72;38.24
48402;BME280;65988;52.422;16.746;2023-07-31T22:05:41;98706.81;;;32.10;39.67
48402;BME280;65988;52.422;16.746;2023-07-31T22:08:08;98765.63;;;32.53;38.74
48402;BME280;65988;52.422;16.746;2023-07-31T22:10:34;98639.03;;;33.02;38.11
48402;BME280;65988;52.422;16.746;2023-07-31T22:12:59;98706.97;;;32.33;39.30
48402;BME280;65988;52.422;16.746;2023-07-31T22:15:25;98782.09;;;33.97;37.08
48402;BME280;65988;52.422;16.746;2023-07-31T22:17:56;98933.03;;;35.35;35.97
48402;BME280;65988;52.422;16.746;2023-07-31T22:20:24;98671.13;;;32.22;38.90
48402;BME280;65988;52.422;16.746;2023-07-31T22:23:00;98686.63;;;32.51;39.04
48402;BME280;65988;52.422;16.746;2023-07-31T22:25:32;99056.75;;;35.40;36.78
48402;BME280;65988;52.422;16.746;2023-07-31T22:27:58;98699.28;;;33.65;37.50
48402;BME280;65988;52.422;16.746;2023-07-31T22:30:25;98965.66;;;34.91;36.57
48402;BME280;65988;52.422;16.746;2023-07-31T22:32:54;99021.47;;;35.36;36.33
48402;BME280;65988;52.422;16.746;2023-07-31T22:35:23;98929.31;;;34.53;36.87
48402;BME280;65988;52.422;16.746;2023-07-31T22:37:56;99062.41;;;36.31;35.38
48402;BME280;65988;52.422;16.746;2023-07-31T22:40:33;98878.91;;;34.43;36.97
48402;BME280;65988;52.422;16.746;2023-07-31T22:43:03;98591.22;;;33.83;36.37
48402;BME280;65988;52.422;16.746;2023-07-31T22:45:28;98687.66;;;33.59;37.46
48402;BME280;65988;52.422;16.746;2023-07-31T22:47:58;98762.03;;;34.00;37.44
48402;BME280;65988;52.422;16.746;2023-07-31T22:50:37;99037.78;;;35.23;36.78
48402;BME280;65988;52.422;16.746;2023-07-31T22:53:12;98996.13;;;35.20;36.66
48402;BME280;65988;52.422;16.746;2023-07-31T22:56:11;99037.34;;;36.02;35.96
48402;BME280;65988;52.422;16.746;2023-07-31T22:58:51;98921.59;;;35.68;35.75
48402;BME280;65988;52.422;16.746;2023-07-31T23:01:26;98971.91;;;35.44;36.34
48402;BME280;65988;52.422;16.746;2023-07-31T23:04:38;98994.75;;;36.28;35.66
48402;BME280;65988;52.422;16.746;2023-07-31T23:07:28;99029.41;;;35.95;35.91
48402;BME280;65988;52.422;16.746;2023-07-31T23:10:15;98945.03;;;35.44;36.45
48402;BME280;65988;52.422;16.746;2023-07-31T23:13:04;99028.16;;;35.74;36.63
48402;BME280;65988;52.422;16.746;2023-07-31T23:18:38;98693.66;;;35.02;36.35
48402;BME280;65988;52.422;16.746;2023-07-31T23:21:10;98986.81;;;36.33;35.75
48402;BME280;65988;52.422;16.746;2023-07-31T23:23:38;98682.84;;;34.44;36.96
48402;BME280;65988;52.422;16.746;2023-07-31T23:26:05;98744.06;;;33.88;37.20
48402;BME280;65988;52.422;16.746;2023-07-31T23:28:31;98657.31;;;34.83;36.40
48402;BME280;65988;52.422;16.746;2023-07-31T23:31:03;98941.97;;;35.52;36.32
48402;BME280;65988;52.422;16.746;2023-07-31T23:33:33;99036.34;;;35.79;36.38
48402;BME280;65988;52.422;16.746;2023-07-31T23:36:28;98975.25;;;35.63;36.54
48402;BME280;65988;52.422;16.746;2023-07-31T23:38:56;99044.31;;;35.62;36.98
48402;BME280;65988;52.422;16.746;2023-07-31T23:41:22;98963.19;;;35.01;37.23
48402;BME280;65988;52.422;16.746;2023-07-31T23:44:01;99032.38;;;35.82;36.32
48402;BME280;65988;52.422;16.746;2023-07-31T23:46:39;98984.03;;;35.99;36.15
48402;BME280;65988;52.422;16.746;2023-07-31T23:49:22;99043.28;;;36.62;35.22
48402;BME280;65988;52.422;16.746;2023-07-31T23:51:48;98708.81;;;35.25;35.74
48402;BME280;65988;52.422;16.746;2023-07-31T23:54:13;98737.69;;;34.89;36.08
48402;BME280;65988;52.422;16.746;2023-07-31T23:56:43;98963.81;;;35.96;36.06
48402;BME280;65988;52.422;16.746;2023-07-31T23:59:11;98968.53;;;35.77;35.87
